Terminal Aerodrome Forecast
Issued by NWS Twin Cities, MN

Home | Current Version | Previous Version | Text Only | Print | Product List | Glossary Off
Versions: 1 2 3 4 5 6 7 8 9 10 11 12 13 14

000
FTUS43 KMPX 251120
TAFSTC
TAF
KSTC 251120Z 2512/2612 23012KT P6SM SCT008 BKN015
     FM251500 27018G28KT P6SM BKN015 OVC025
     FM251800 29023G34KT P6SM BKN025
     FM260100 31017G24KT P6SM SKC
     FM260600 32011KT P6SM SKC=

USA.gov is the U.S. government's official web portal to all federal, state and local government web resources and services.